createdAt,value
2022-10-27T00:01:34.945Z,101518.33
2022-10-27T00:04:09.311Z,101516.02
2022-10-27T00:06:42.675Z,101518.20
2022-10-27T00:09:16.138Z,101515.91
2022-10-27T00:11:50.271Z,101517.11
2022-10-27T00:14:23.998Z,101521.14
2022-10-27T00:16:58.619Z,101520.66
2022-10-27T00:19:32.748Z,101520.01
2022-10-27T00:22:06.124Z,101515.03
2022-10-27T00:24:39.519Z,101518.91
2022-10-27T00:27:13.035Z,101521.93
2022-10-27T00:29:47.658Z,101518.97
2022-10-27T00:32:21.820Z,101521.96
2022-10-27T00:34:55.673Z,101523.13
2022-10-27T00:37:29.794Z,101517.34
2022-10-27T00:40:03.390Z,101521.02
2022-10-27T00:42:36.998Z,101512.53
2022-10-27T00:45:13.423Z,101511.89
2022-10-27T00:47:47.894Z,101518.41
2022-10-27T00:50:25.289Z,101512.44
2022-10-27T00:53:01.687Z,101515.45
2022-10-27T00:55:39.529Z,101517.63
2022-10-27T00:58:17.541Z,101528.63
2022-10-27T01:00:51.252Z,101525.51
2022-10-27T01:03:26.296Z,101526.67
2022-10-27T01:06:01.287Z,101519.04
2022-10-27T01:08:34.965Z,101517.57
2022-10-27T01:11:09.135Z,101515.27
2022-10-27T01:13:43.443Z,101517.43
2022-10-27T01:16:28.922Z,101525.77
2022-10-27T01:19:16.238Z,101517.12
2022-10-27T01:22:12.437Z,101524.30
2022-10-27T01:25:21.420Z,101522.64
2022-10-27T01:28:19.857Z,101533.45
2022-10-27T01:31:06.159Z,101533.64
2022-10-27T01:33:44.982Z,101531.98
2022-10-27T01:36:25.288Z,101534.64
2022-10-27T01:39:05.901Z,101539.13
2022-10-27T01:41:45.220Z,101533.99
2022-10-27T01:44:24.305Z,101540.12
2022-10-27T01:46:58.726Z,101547.11
2022-10-27T01:49:38.222Z,101543.45
2022-10-27T01:52:42.955Z,101541.63
2022-10-27T01:55:25.252Z,101548.61
2022-10-27T01:58:33.288Z,101544.75
2022-10-27T02:01:19.916Z,101554.40
2022-10-27T02:04:00.942Z,101550.73
2022-10-27T02:06:43.141Z,101548.92
2022-10-27T02:09:22.474Z,101549.57
2022-10-27T02:11:59.199Z,101541.39
2022-10-27T02:14:32.749Z,101551.04
2022-10-27T02:17:08.308Z,101551.88
2022-10-27T02:19:44.097Z,101553.55
2022-10-27T02:22:18.935Z,101551.53
2022-10-27T02:24:54.260Z,101558.33
2022-10-27T02:27:35.090Z,101560.99
2022-10-27T02:30:11.293Z,101560.83
2022-10-27T02:32:46.187Z,101572.95
2022-10-27T02:35:20.711Z,101572.60
2022-10-27T02:37:54.809Z,101572.44
2022-10-27T02:40:28.744Z,101574.91
2022-10-27T02:43:02.633Z,101582.55
2022-10-27T02:45:36.021Z,101585.06
2022-10-27T02:48:09.630Z,101588.38
2022-10-27T02:50:43.538Z,101590.03
2022-10-27T02:56:13.630Z,101591.69
2022-10-27T02:58:47.156Z,101596.02
2022-10-27T03:01:21.043Z,101593.35
2022-10-27T03:03:54.503Z,101600.34
2022-10-27T03:06:27.837Z,101604.82
2022-10-27T03:09:02.062Z,101599.49
2022-10-27T03:11:39.579Z,101596.83
2022-10-27T03:14:16.230Z,101601.34
2022-10-27T03:16:49.599Z,101607.33
2022-10-27T03:19:23.325Z,101608.48
2022-10-27T03:21:57.536Z,101611.16
2022-10-27T03:24:30.882Z,101619.98
2022-10-27T03:27:04.941Z,101615.66
2022-10-27T03:29:38.440Z,101617.33
2022-10-27T03:32:11.927Z,101613.66
2022-10-27T03:34:45.523Z,101618.98
2022-10-27T03:37:18.815Z,101621.65
2022-10-27T03:39:52.327Z,101620.99
2022-10-27T03:42:25.720Z,101626.13
2022-10-27T03:44:59.627Z,101629.80
2022-10-27T03:47:33.836Z,101630.64
2022-10-27T03:50:09.186Z,101625.47
2022-10-27T03:52:43.697Z,101633.31
2022-10-27T03:55:17.497Z,101636.98
2022-10-27T03:57:52.569Z,101636.32
2022-10-27T04:00:28.965Z,101644.66
2022-10-27T04:03:02.814Z,101648.48
2022-10-27T04:05:36.851Z,101640.84
2022-10-27T04:08:11.291Z,101652.50
2022-10-27T04:10:44.844Z,101644.70
2022-10-27T04:13:25.499Z,101642.19
2022-10-27T04:16:06.396Z,101648.36
2022-10-27T04:18:39.983Z,101650.37
2022-10-27T04:21:13.594Z,101653.03
2022-10-27T04:23:47.541Z,101646.05
2022-10-27T04:26:21.091Z,101654.19
2022-10-27T04:28:54.799Z,101644.73
2022-10-27T04:31:28.196Z,101656.38
2022-10-27T04:34:01.797Z,101654.88
2022-10-27T04:36:35.301Z,101650.74
2022-10-27T04:39:08.917Z,101652.91
2022-10-27T04:41:42.477Z,101654.25
2022-10-27T04:44:15.967Z,101656.59
2022-10-27T04:46:49.365Z,101657.78
2022-10-27T04:49:22.728Z,101659.28
2022-10-27T04:51:56.318Z,101665.95
2022-10-27T04:54:30.651Z,101676.94
2022-10-27T04:57:04.269Z,101678.27
2022-10-27T04:59:37.535Z,101673.47
2022-10-27T05:02:12.312Z,101683.45
2022-10-27T05:04:45.552Z,101679.81
2022-10-27T05:07:18.748Z,101682.14
2022-10-27T05:09:52.925Z,101691.45
2022-10-27T05:12:26.630Z,101692.79
2022-10-27T05:15:00.296Z,101693.94
2022-10-27T05:17:34.301Z,101697.93
2022-10-27T05:20:09.528Z,101705.24
2022-10-27T05:22:42.936Z,101694.78
2022-10-27T05:25:17.904Z,101706.42
2022-10-27T05:27:52.168Z,101709.23
2022-10-27T05:30:26.396Z,101713.73
2022-10-27T05:33:00.109Z,101716.39
2022-10-27T05:35:34.362Z,101714.73
2022-10-27T05:38:07.917Z,101727.84
2022-10-27T05:40:41.302Z,101724.52
2022-10-27T05:43:15.214Z,101741.14
2022-10-27T05:45:48.826Z,101731.50
2022-10-27T05:48:22.315Z,101744.66
2022-10-27T05:50:59.094Z,101748.13
2022-10-27T05:53:32.489Z,101756.11
2022-10-27T05:56:06.240Z,101754.44
2022-10-27T05:58:39.687Z,101762.42
2022-10-27T06:01:13.954Z,101759.09
2022-10-27T06:03:47.139Z,101764.59
2022-10-27T06:06:20.887Z,101766.26
2022-10-27T06:08:54.443Z,101767.92
2022-10-27T06:11:27.879Z,101773.91
2022-10-27T06:14:01.278Z,101776.56
2022-10-27T06:16:34.878Z,101785.21
2022-10-27T06:19:08.881Z,101787.55
2022-10-27T06:21:42.401Z,101790.02
2022-10-27T06:24:16.090Z,101794.20
2022-10-27T06:26:53.116Z,101802.67
2022-10-27T06:29:29.952Z,101804.84
2022-10-27T06:32:03.443Z,101812.32
2022-10-27T06:34:36.943Z,101810.00
2022-10-27T06:37:10.710Z,101806.00
2022-10-27T06:39:44.448Z,101806.34
2022-10-27T06:42:18.114Z,101807.67
2022-10-27T06:44:57.381Z,101803.68
2022-10-27T06:47:30.926Z,101796.20
2022-10-27T06:50:04.382Z,101807.67
2022-10-27T06:52:41.055Z,101803.52
2022-10-27T06:55:14.735Z,101802.52
2022-10-27T06:57:48.632Z,101797.84
2022-10-27T07:00:25.022Z,101809.95
2022-10-27T07:02:58.292Z,101801.59
2022-10-27T07:05:32.370Z,101802.89
2022-10-27T07:08:06.121Z,101807.73
2022-10-27T07:10:40.128Z,101814.34
2022-10-27T07:13:13.637Z,101817.94
2022-10-27T07:15:47.839Z,101818.20
2022-10-27T07:18:21.207Z,101821.80
2022-10-27T07:20:55.038Z,101821.69
2022-10-27T07:23:28.435Z,101826.07
2022-10-27T07:26:02.351Z,101828.62
2022-10-27T07:28:36.258Z,101833.02
2022-10-27T07:31:09.796Z,101833.91
2022-10-27T07:33:43.390Z,101831.09
2022-10-27T07:36:17.563Z,101837.92
2022-10-27T07:38:50.583Z,101830.58
2022-10-27T07:41:24.360Z,101830.38
2022-10-27T07:43:57.880Z,101835.70
2022-10-27T07:46:32.307Z,101845.17
2022-10-27T07:49:06.500Z,101838.59
2022-10-27T07:51:39.888Z,101844.58
2022-10-27T07:54:13.817Z,101842.68
2022-10-27T07:56:49.225Z,101844.08
2022-10-27T07:59:22.557Z,101846.29
2022-10-27T08:01:56.539Z,101847.03
2022-10-27T08:04:30.415Z,101845.93
2022-10-27T08:07:04.537Z,101842.10
2022-10-27T08:09:38.007Z,101837.13
2022-10-27T08:12:12.118Z,101842.34
2022-10-27T08:14:45.854Z,101846.34
2022-10-27T08:17:19.784Z,101842.50
2022-10-27T08:19:53.358Z,101838.83
2022-10-27T08:22:27.065Z,101844.86
2022-10-27T08:25:02.732Z,101843.86
2022-10-27T08:27:38.698Z,101850.71
2022-10-27T08:30:13.967Z,101845.16
2022-10-27T08:32:47.715Z,101852.38
2022-10-27T08:35:21.315Z,101841.62
2022-10-27T08:38:01.673Z,101837.27
2022-10-27T08:40:45.287Z,101838.70
2022-10-27T08:43:35.889Z,101847.36
2022-10-27T08:46:15.477Z,101843.63
2022-10-27T08:48:50.781Z,101843.58
2022-10-27T08:51:27.927Z,101850.56
2022-10-27T08:54:03.062Z,101845.12
2022-10-27T08:56:40.764Z,101843.41
2022-10-27T08:59:20.736Z,101841.67
2022-10-27T09:02:03.978Z,101840.78
2022-10-27T09:05:07.789Z,101844.02
2022-10-27T09:07:50.535Z,101841.00
2022-10-27T09:10:43.932Z,101847.92
2022-10-27T09:13:31.079Z,101846.77
2022-10-27T09:16:08.231Z,101849.34
2022-10-27T09:18:46.732Z,101846.75
2022-10-27T09:21:23.881Z,101847.06
2022-10-27T09:24:00.197Z,101833.66
2022-10-27T09:26:36.403Z,101832.77
2022-10-27T09:29:17.461Z,101832.25
2022-10-27T09:32:01.713Z,101829.60
2022-10-27T09:34:41.725Z,101828.84
2022-10-27T09:37:18.181Z,101831.22
2022-10-27T09:39:53.827Z,101824.69
2022-10-27T09:42:30.478Z,101819.78
2022-10-27T09:45:14.054Z,101823.34
2022-10-27T09:47:51.354Z,101821.98
2022-10-27T09:50:28.335Z,101814.61
2022-10-27T09:53:01.843Z,101809.45
2022-10-27T09:55:52.865Z,101805.02
2022-10-27T09:58:26.453Z,101806.31
2022-10-27T10:01:05.654Z,101807.03
2022-10-27T10:03:39.728Z,101805.03
2022-10-27T10:06:30.070Z,101808.22
2022-10-27T10:09:23.049Z,101802.09
2022-10-27T10:12:23.121Z,101805.75
2022-10-27T10:15:21.094Z,101803.50
2022-10-27T10:18:00.246Z,101794.83
2022-10-27T10:23:26.349Z,101787.84
2022-10-27T10:26:01.138Z,101786.89
2022-10-27T10:28:39.015Z,101787.58
2022-10-27T10:31:16.053Z,101787.20
2022-10-27T10:33:50.838Z,101790.00
2022-10-27T10:36:30.977Z,101787.17
2022-10-27T10:39:04.757Z,101782.92
2022-10-27T10:55:27.634Z,101780.32
2022-10-27T11:01:53.106Z,101777.39
2022-10-27T11:04:48.002Z,101766.06
2022-10-27T11:07:41.365Z,101762.94
2022-10-27T11:10:39.254Z,101775.50
2022-10-27T11:13:40.503Z,101774.75
2022-10-27T11:16:34.063Z,101762.69
2022-10-27T11:19:35.599Z,101761.43
2022-10-27T11:22:29.659Z,101758.56
2022-10-27T11:25:25.258Z,101756.99
2022-10-27T11:28:24.638Z,101758.17
2022-10-27T11:31:23.918Z,101765.54
2022-10-27T11:34:26.806Z,101760.19
2022-10-27T11:37:26.172Z,101762.40
2022-10-27T11:40:27.472Z,101759.52
2022-10-27T11:43:27.271Z,101754.16
2022-10-27T11:46:22.280Z,101749.88
2022-10-27T11:49:22.972Z,101750.75
2022-10-27T11:52:18.637Z,101750.00
2022-10-27T11:55:14.777Z,101750.88
2022-10-27T11:58:13.648Z,101750.12
2022-10-27T12:01:16.653Z,101739.57
2022-10-27T12:04:27.201Z,101732.00
2022-10-27T12:07:29.990Z,101732.33
2022-10-27T12:10:35.732Z,101745.89
2022-10-27T12:13:34.470Z,101738.32
2022-10-27T12:16:32.114Z,101740.80
2022-10-27T12:19:29.771Z,101732.38
2022-10-27T12:22:29.315Z,101735.09
2022-10-27T12:25:29.117Z,101738.88
2022-10-27T12:28:22.587Z,101730.17
2022-10-27T12:31:19.804Z,101731.02
2022-10-27T12:34:15.516Z,101731.02
2022-10-27T12:37:13.653Z,101729.94
2022-10-27T12:40:12.957Z,101731.76
2022-10-27T12:43:18.623Z,101738.77
2022-10-27T12:46:25.012Z,101728.86
2022-10-27T12:49:27.283Z,101737.52
2022-10-27T12:52:24.585Z,101731.13
2022-10-27T12:55:43.913Z,101735.73
2022-10-27T12:58:48.028Z,101724.38
2022-10-27T13:01:51.809Z,101717.11
2022-10-27T13:05:20.019Z,101709.60
2022-10-27T13:12:09.560Z,101725.31
2022-10-27T13:15:26.240Z,101720.16
2022-10-27T13:18:32.182Z,101718.81
2022-10-27T13:21:31.852Z,101719.65
2022-10-27T13:24:32.788Z,101723.16
2022-10-27T13:27:30.813Z,101722.93
2022-10-27T13:30:25.038Z,101709.60
2022-10-27T13:33:34.025Z,101719.59
2022-10-27T13:36:28.015Z,101719.59
2022-10-27T13:39:45.414Z,101714.40
2022-10-27T13:42:38.347Z,101719.59
2022-10-27T13:45:51.285Z,101716.31
2022-10-27T13:48:59.780Z,101712.96
2022-10-27T13:52:12.128Z,101718.06
2022-10-27T13:55:38.359Z,101719.97
2022-10-27T13:58:51.404Z,101722.11
2022-10-27T14:01:53.957Z,101714.41
2022-10-27T14:04:51.491Z,101714.27
2022-10-27T14:07:46.090Z,101719.53
2022-10-27T14:10:40.434Z,101718.31
2022-10-27T14:13:40.636Z,101714.38
2022-10-27T14:16:35.271Z,101715.03
2022-10-27T14:19:30.671Z,101714.65
2022-10-27T14:22:40.707Z,101715.06
2022-10-27T14:25:35.060Z,101716.28
2022-10-27T14:28:27.567Z,101719.17
2022-10-27T14:31:24.107Z,101721.22
2022-10-27T14:34:23.362Z,101715.91
2022-10-27T14:37:20.773Z,101721.23
2022-10-27T14:40:21.238Z,101720.83
2022-10-27T14:43:23.055Z,101717.68
2022-10-27T14:46:22.506Z,101720.78
2022-10-27T14:49:30.711Z,101719.53
2022-10-27T14:52:30.943Z,101724.75
2022-10-27T14:55:37.139Z,101722.42
2022-10-27T14:58:28.884Z,101713.30
2022-10-27T15:01:34.428Z,101719.30
2022-10-27T15:04:29.099Z,101708.72
2022-10-27T15:07:24.102Z,101714.75
2022-10-27T15:10:20.357Z,101717.70
2022-10-27T15:13:18.548Z,101723.33
2022-10-27T15:16:16.172Z,101720.05
2022-10-27T15:19:13.615Z,101717.80
2022-10-27T15:22:06.267Z,101722.80
2022-10-27T15:25:00.083Z,101716.67
2022-10-27T15:27:51.934Z,101724.14
2022-10-27T15:30:45.310Z,101721.28
2022-10-27T15:33:41.536Z,101716.52
2022-10-27T15:36:34.493Z,101717.93
2022-10-27T15:39:28.586Z,101721.84
2022-10-27T15:42:23.496Z,101721.40
2022-10-27T15:45:39.774Z,101726.34
2022-10-27T15:48:40.176Z,101731.70
2022-10-27T15:51:47.150Z,101737.66
2022-10-27T15:54:43.377Z,101725.77
2022-10-27T15:57:39.024Z,101729.61
2022-10-27T16:00:31.463Z,101734.48
2022-10-27T16:03:34.484Z,101732.92
2022-10-27T16:06:33.456Z,101734.86
2022-10-27T16:09:42.771Z,101739.50
2022-10-27T16:12:43.082Z,101747.19
2022-10-27T16:15:37.576Z,101741.87
2022-10-27T16:18:29.709Z,101747.29
2022-10-27T16:21:28.528Z,101741.95
2022-10-27T16:24:24.754Z,101743.02
2022-10-27T16:27:20.729Z,101743.88
2022-10-27T16:30:19.349Z,101740.38
2022-10-27T16:33:16.354Z,101749.28
2022-10-27T16:36:12.388Z,101751.09
2022-10-27T16:39:05.376Z,101753.58
2022-10-27T16:41:57.496Z,101754.38
2022-10-27T16:44:49.485Z,101757.88
2022-10-27T16:47:41.551Z,101748.77
2022-10-27T16:50:33.431Z,101759.23
2022-10-27T16:53:26.182Z,101757.14
2022-10-27T16:56:18.919Z,101770.31
2022-10-27T16:59:10.856Z,101769.86
2022-10-27T17:02:03.257Z,101766.86
2022-10-27T17:04:55.537Z,101771.12
2022-10-27T17:07:48.573Z,101770.66
2022-10-27T17:10:40.621Z,101776.34
2022-10-27T17:13:33.472Z,101779.39
2022-10-27T17:16:25.767Z,101780.94
2022-10-27T17:19:18.767Z,101788.27
2022-10-27T17:22:10.594Z,101785.31
2022-10-27T17:25:01.826Z,101784.80
2022-10-27T17:27:55.080Z,101785.95
2022-10-27T17:30:48.161Z,101780.09
2022-10-27T17:33:40.963Z,101783.23
2022-10-27T17:36:33.277Z,101783.36
2022-10-27T17:39:26.334Z,101789.64
2022-10-27T17:42:18.395Z,101790.59
2022-10-27T17:45:12.769Z,101789.86
2022-10-27T17:48:05.099Z,101787.30
2022-10-27T17:51:03.092Z,101783.07
2022-10-27T17:53:55.621Z,101793.87
2022-10-27T17:56:45.691Z,101790.65
2022-10-27T17:59:38.807Z,101798.77
2022-10-27T18:02:32.448Z,101799.86
2022-10-27T18:05:27.354Z,101797.28
2022-10-27T18:08:21.382Z,101796.55
2022-10-27T18:11:16.951Z,101793.77
2022-10-27T18:14:14.330Z,101792.84
2022-10-27T18:17:08.130Z,101795.39
2022-10-27T18:20:00.337Z,101790.94
2022-10-27T18:22:53.521Z,101795.50
2022-10-27T18:25:45.783Z,101800.75
2022-10-27T18:28:38.958Z,101801.63
2022-10-27T18:31:36.396Z,101802.70
2022-10-27T18:34:29.557Z,101804.07
2022-10-27T18:37:22.124Z,101813.80
2022-10-27T18:40:14.498Z,101800.34
2022-10-27T18:43:06.191Z,101806.55
2022-10-27T18:46:02.076Z,101805.79
2022-10-27T18:48:56.542Z,101803.83
2022-10-27T18:51:48.424Z,101802.86
2022-10-27T18:54:40.545Z,101808.05
2022-10-27T18:57:32.488Z,101806.08
2022-10-27T19:00:26.425Z,101805.97
2022-10-27T19:03:19.847Z,101810.14
2022-10-27T19:06:15.246Z,101812.68
2022-10-27T19:09:07.612Z,101809.70
2022-10-27T19:12:00.911Z,101808.73
2022-10-27T19:14:53.136Z,101814.56
2022-10-27T19:17:45.945Z,101811.73
2022-10-27T19:20:37.515Z,101815.90
2022-10-27T19:23:31.553Z,101815.42
2022-10-27T19:26:25.807Z,101818.77
2022-10-27T19:29:18.093Z,101821.11
2022-10-27T19:32:10.519Z,101820.45
2022-10-27T19:35:03.240Z,101819.13
2022-10-27T19:37:55.608Z,101814.14
2022-10-27T19:40:48.378Z,101814.48
2022-10-27T19:43:42.598Z,101826.28
2022-10-27T19:46:38.311Z,101823.14
2022-10-27T19:49:28.922Z,101819.16
2022-10-27T19:52:20.625Z,101825.63
2022-10-27T19:55:13.244Z,101822.48
2022-10-27T19:58:03.791Z,101830.81
2022-10-27T20:00:55.839Z,101842.61
2022-10-27T20:03:48.609Z,101828.62
2022-10-27T20:06:46.398Z,101838.61
2022-10-27T20:09:38.060Z,101841.79
2022-10-27T20:12:31.044Z,101849.26
2022-10-27T20:15:22.968Z,101850.44
2022-10-27T20:18:14.766Z,101848.91
2022-10-27T20:21:07.208Z,101858.06
2022-10-27T20:24:00.442Z,101863.05
2022-10-27T20:26:53.528Z,101868.70
2022-10-27T20:29:45.762Z,101862.70
2022-10-27T20:32:43.461Z,101863.03
2022-10-27T20:35:35.980Z,101863.51
2022-10-27T20:38:28.619Z,101868.16
2022-10-27T20:41:22.958Z,101876.31
2022-10-27T20:44:15.130Z,101868.66
2022-10-27T20:47:07.384Z,101869.80
2022-10-27T20:49:57.969Z,101862.14
2022-10-27T20:52:49.969Z,101866.30
2022-10-27T20:55:42.237Z,101871.27
2022-10-27T20:58:34.477Z,101876.73
2022-10-27T21:01:31.403Z,101871.20
2022-10-27T21:04:23.861Z,101871.52
2022-10-27T21:07:15.894Z,101873.52
2022-10-27T21:10:11.370Z,101873.69
2022-10-27T21:13:03.073Z,101880.14
2022-10-27T21:15:59.778Z,101874.00
2022-10-27T21:18:55.177Z,101886.63
2022-10-27T21:21:47.258Z,101874.61
2022-10-27T21:24:39.467Z,101875.92
2022-10-27T21:27:31.173Z,101872.59
2022-10-27T21:35:53.357Z,101873.37
2022-10-27T21:38:47.196Z,101870.35
2022-10-27T21:41:39.449Z,101871.16
2022-10-27T21:44:31.728Z,101870.12
2022-10-27T21:47:23.511Z,101879.39
2022-10-27T21:50:16.324Z,101876.88
2022-10-27T21:53:06.549Z,101887.50
2022-10-27T21:55:59.686Z,101883.17
2022-10-27T22:01:25.758Z,101882.36
2022-10-27T22:04:18.546Z,101880.52
2022-10-27T22:07:10.328Z,101889.48
2022-10-27T22:10:02.045Z,101893.97
2022-10-27T22:12:54.888Z,101893.30
2022-10-27T22:15:47.535Z,101893.61
2022-10-27T22:18:40.869Z,101900.05
2022-10-27T22:21:36.105Z,101906.52
2022-10-27T22:24:28.044Z,101898.69
2022-10-27T22:27:20.276Z,101894.37
2022-10-27T22:30:14.338Z,101899.17
2022-10-27T22:33:06.593Z,101905.61
2022-10-27T22:36:04.722Z,101898.94
2022-10-27T22:38:58.283Z,101900.23
2022-10-27T22:41:50.472Z,101899.73
2022-10-27T22:44:42.495Z,101901.70
2022-10-27T22:47:35.081Z,101903.81
2022-10-27T22:50:27.590Z,101897.99
2022-10-27T22:53:20.405Z,101907.08
2022-10-27T22:56:13.082Z,101902.08
2022-10-27T22:59:08.660Z,101904.05
2022-10-27T23:02:01.732Z,101904.35
2022-10-27T23:04:53.886Z,101905.51
2022-10-27T23:07:45.911Z,101910.27
2022-10-27T23:10:37.750Z,101914.08
2022-10-27T23:13:32.954Z,101915.36
2022-10-27T23:16:25.348Z,101911.17
2022-10-27T23:19:18.550Z,101909.50
2022-10-27T23:22:08.741Z,101907.16
2022-10-27T23:25:00.975Z,101906.64
2022-10-27T23:27:56.011Z,101914.05
2022-10-27T23:30:48.821Z,101911.70
2022-10-27T23:33:40.962Z,101906.86
2022-10-27T23:36:35.389Z,101917.90
2022-10-27T23:39:27.778Z,101926.16
2022-10-27T23:42:18.283Z,101922.13
2022-10-27T23:45:12.039Z,101913.78
2022-10-27T23:48:03.985Z,101921.22
2022-10-27T23:50:55.605Z,101929.47
2022-10-27T23:53:49.834Z,101937.56
2022-10-27T23:56:43.563Z,101928.91
2022-10-27T23:59:36.208Z,101938.02
